sensor_id;sensor_type;location;lat;lon;timestamp;pressure;altitude;pressure_sealevel;temperature;humidity
3178;BME280;38141;42.666;23.344;2023-05-19T00:01:12;94893.50;;;12.21;100.00
3178;BME280;38141;42.666;23.344;2023-05-19T00:03:48;94879.53;;;12.04;100.00
3178;BME280;38141;42.666;23.344;2023-05-19T00:06:22;94888.47;;;12.23;100.00
3178;BME280;38141;42.666;23.344;2023-05-19T00:08:55;94876.44;;;12.13;100.00
3178;BME280;38141;42.666;23.344;2023-05-19T00:11:23;94893.50;;;12.31;100.00
3178;BME280;38141;42.666;23.344;2023-05-19T00:13:51;94880.72;;;12.28;100.00
3178;BME280;38141;42.666;23.344;2023-05-19T00:16:20;94883.81;;;12.30;100.00
3178;BME280;38141;42.666;23.344;2023-05-19T00:18:48;94890.00;;;12.27;100.00
3178;BME280;38141;42.666;23.344;2023-05-19T00:21:14;94894.25;;;12.18;100.00
3178;BME280;38141;42.666;23.344;2023-05-19T00:23:41;94869.88;;;12.11;100.00
3178;BME280;38141;42.666;23.344;2023-05-19T00:26:08;94869.84;;;12.14;100.00
3178;BME280;38141;42.666;23.344;2023-05-19T00:28:35;94872.97;;;12.16;100.00
3178;BME280;38141;42.666;23.344;2023-05-19T00:31:03;94876.47;;;12.17;100.00
3178;BME280;38141;42.666;23.344;2023-05-19T00:33:32;94871.03;;;12.13;100.00
3178;BME280;38141;42.666;23.344;2023-05-19T00:35:59;94858.63;;;12.05;100.00
3178;BME280;38141;42.666;23.344;2023-05-19T00:38:29;94872.94;;;12.41;100.00
3178;BME280;38141;42.666;23.344;2023-05-19T00:40:56;94875.28;;;12.39;100.00
3178;BME280;38141;42.666;23.344;2023-05-19T00:43:22;94847.41;;;12.21;100.00
3178;BME280;38141;42.666;23.344;2023-05-19T00:45:49;94865.63;;;12.17;100.00
3178;BME280;38141;42.666;23.344;2023-05-19T00:48:16;94862.13;;;12.06;100.00
3178;BME280;38141;42.666;23.344;2023-05-19T00:50:44;94848.94;;;11.97;100.00
3178;BME280;38141;42.666;23.344;2023-05-19T00:53:12;94862.13;;;12.09;100.00
3178;BME280;38141;42.666;23.344;2023-05-19T00:55:40;94867.94;;;12.22;100.00
3178;BME280;38141;42.666;23.344;2023-05-19T00:58:08;94860.97;;;12.21;100.00
3178;BME280;38141;42.666;23.344;2023-05-19T01:00:36;94865.22;;;12.18;100.00
3178;BME280;38141;42.666;23.344;2023-05-19T01:03:03;94865.22;;;12.18;100.00
3178;BME280;38141;42.666;23.344;2023-05-19T01:05:35;94862.50;;;12.32;100.00
3178;BME280;38141;42.666;23.344;2023-05-19T01:08:04;94856.69;;;12.48;100.00
3178;BME280;38141;42.666;23.344;2023-05-19T01:10:32;94869.06;;;12.42;100.00
3178;BME280;38141;42.666;23.344;2023-05-19T01:12:59;94871.03;;;12.31;100.00
3178;BME280;38141;42.666;23.344;2023-05-19T01:15:26;94869.88;;;12.07;100.00
3178;BME280;38141;42.666;23.344;2023-05-19T01:18:00;94880.69;;;12.18;100.00
3178;BME280;38141;42.666;23.344;2023-05-19T01:20:34;94874.13;;;12.22;100.00
3178;BME280;38141;42.666;23.344;2023-05-19T01:23:26;94868.72;;;12.12;100.00
3178;BME280;38141;42.666;23.344;2023-05-19T01:29:20;94869.09;;;11.89;100.00
3178;BME280;38141;42.666;23.344;2023-05-19T01:31:54;94862.03;;;11.63;100.00
3178;BME280;38141;42.666;23.344;2023-05-19T01:34:22;94855.06;;;11.51;100.00
3178;BME280;38141;42.666;23.344;2023-05-19T01:36:53;94874.06;;;11.62;100.00
3178;BME280;38141;42.666;23.344;2023-05-19T01:39:21;94863.63;;;11.71;100.00
3178;BME280;38141;42.666;23.344;2023-05-19T01:41:49;94869.44;;;11.77;100.00
3178;BME280;38141;42.666;23.344;2023-05-19T01:44:16;94869.84;;;11.82;100.00
3178;BME280;38141;42.666;23.344;2023-05-19T01:46:46;94874.50;;;11.85;100.00
3178;BME280;38141;42.666;23.344;2023-05-19T01:49:14;94877.22;;;11.85;100.00
3178;BME280;38141;42.666;23.344;2023-05-19T01:51:41;94848.94;;;11.76;100.00
3178;BME280;38141;42.666;23.344;2023-05-19T01:54:08;94859.81;;;11.90;100.00
3178;BME280;38141;42.666;23.344;2023-05-19T01:56:41;94872.56;;;12.00;100.00
3178;BME280;38141;42.666;23.344;2023-05-19T01:59:19;94846.59;;;11.81;100.00
3178;BME280;38141;42.666;23.344;2023-05-19T02:01:51;94877.13;;;11.68;100.00
3178;BME280;38141;42.666;23.344;2023-05-19T02:04:28;94867.78;;;11.40;100.00
3178;BME280;38141;42.666;23.344;2023-05-19T02:07:02;94876.28;;;11.32;100.00
3178;BME280;38141;42.666;23.344;2023-05-19T02:09:37;94868.94;;;11.32;100.00
3178;BME280;38141;42.666;23.344;2023-05-19T02:12:10;94866.63;;;11.41;100.00
3178;BME280;38141;42.666;23.344;2023-05-19T02:14:46;94877.47;;;11.41;100.00
3178;BME280;38141;42.666;23.344;2023-05-19T02:17:15;94880.94;;;11.42;100.00
3178;BME280;38141;42.666;23.344;2023-05-19T02:19:45;94859.59;;;11.23;100.00
3178;BME280;38141;42.666;23.344;2023-05-19T02:22:12;94866.97;;;11.26;100.00
3178;BME280;38141;42.666;23.344;2023-05-19T02:24:39;94866.56;;;11.20;100.00
3178;BME280;38141;42.666;23.344;2023-05-19T02:27:06;94875.47;;;11.24;100.00
3178;BME280;38141;42.666;23.344;2023-05-19T02:29:33;94866.97;;;11.26;100.00
3178;BME280;38141;42.666;23.344;2023-05-19T02:32:00;94876.25;;;11.21;100.00
3178;BME280;38141;42.666;23.344;2023-05-19T02:34:27;94876.59;;;11.12;100.00
3178;BME280;38141;42.666;23.344;2023-05-19T02:36:55;94848.28;;;10.96;100.00
3178;BME280;38141;42.666;23.344;2023-05-19T02:39:22;94885.94;;;11.29;100.00
3178;BME280;38141;42.666;23.344;2023-05-19T02:41:48;94877.34;;;11.13;100.00
3178;BME280;38141;42.666;23.344;2023-05-19T02:44:15;94871.09;;;10.91;100.00
3178;BME280;38141;42.666;23.344;2023-05-19T02:46:42;94818.81;;;10.73;100.00
3178;BME280;38141;42.666;23.344;2023-05-19T02:49:09;94877.72;;;11.04;100.00
3178;BME280;38141;42.666;23.344;2023-05-19T02:51:35;94873.00;;;10.91;100.00
3178;BME280;38141;42.666;23.344;2023-05-19T02:54:03;94886.25;;;11.06;100.00
3178;BME280;38141;42.666;23.344;2023-05-19T02:56:30;94876.94;;;11.00;100.00
3178;BME280;38141;42.666;23.344;2023-05-19T02:58:57;94844.34;;;10.76;100.00
3178;BME280;38141;42.666;23.344;2023-05-19T03:01:24;94888.97;;;11.10;100.00
3178;BME280;38141;42.666;23.344;2023-05-19T03:03:51;94887.81;;;11.07;100.00
3178;BME280;38141;42.666;23.344;2023-05-19T03:06:17;94893.94;;;11.04;100.00
3178;BME280;38141;42.666;23.344;2023-05-19T03:08:47;94855.63;;;10.95;100.00
3178;BME280;38141;42.666;23.344;2023-05-19T03:11:15;94893.28;;;11.22;100.00
3178;BME280;38141;42.666;23.344;2023-05-19T03:13:42;94899.06;;;11.24;100.00
3178;BME280;38141;42.666;23.344;2023-05-19T03:16:09;94892.50;;;11.25;100.00
3178;BME280;38141;42.666;23.344;2023-05-19T03:18:37;94849.06;;;10.93;100.00
3178;BME280;38141;42.666;23.344;2023-05-19T03:21:03;94907.22;;;11.27;100.00
3178;BME280;38141;42.666;23.344;2023-05-19T03:23:30;94903.34;;;11.28;100.00
3178;BME280;38141;42.666;23.344;2023-05-19T03:25:57;94881.19;;;11.05;100.00
3178;BME280;38141;42.666;23.344;2023-05-19T03:28:25;94897.16;;;11.28;100.00
3178;BME280;38141;42.666;23.344;2023-05-19T03:30:52;94893.31;;;11.32;100.00
3178;BME280;38141;42.666;23.344;2023-05-19T03:33:19;94884.31;;;11.07;100.00
3178;BME280;38141;42.666;23.344;2023-05-19T03:35:46;94862.25;;;11.05;100.00
3178;BME280;38141;42.666;23.344;2023-05-19T03:38:13;94898.38;;;11.44;100.00
3178;BME280;38141;42.666;23.344;2023-05-19T03:40:40;94861.50;;;11.08;100.00
3178;BME280;38141;42.666;23.344;2023-05-19T03:43:06;94874.69;;;11.20;100.00
3178;BME280;38141;42.666;23.344;2023-05-19T03:45:35;94898.78;;;11.50;100.00
3178;BME280;38141;42.666;23.344;2023-05-19T03:48:01;94899.94;;;11.49;100.00
3178;BME280;38141;42.666;23.344;2023-05-19T03:50:28;94906.13;;;11.49;100.00
3178;BME280;38141;42.666;23.344;2023-05-19T03:52:55;94878.25;;;11.42;100.00
3178;BME280;38141;42.666;23.344;2023-05-19T03:55:22;94908.56;;;11.79;100.00
3178;BME280;38141;42.666;23.344;2023-05-19T03:57:50;94914.00;;;11.79;100.00
3178;BME280;38141;42.666;23.344;2023-05-19T04:00:17;94908.97;;;11.92;100.00
3178;BME280;38141;42.666;23.344;2023-05-19T04:02:45;94905.09;;;11.93;100.00
3178;BME280;38141;42.666;23.344;2023-05-19T04:05:12;94916.38;;;12.13;100.00
3178;BME280;38141;42.666;23.344;2023-05-19T04:07:39;94906.28;;;12.06;100.00
3178;BME280;38141;42.666;23.344;2023-05-19T04:10:08;94879.56;;;12.12;100.00
3178;BME280;38141;42.666;23.344;2023-05-19T04:12:35;94908.59;;;12.36;100.00
3178;BME280;38141;42.666;23.344;2023-05-19T04:15:02;94848.94;;;11.93;100.00
3178;BME280;38141;42.666;23.344;2023-05-19T04:17:30;94921.81;;;12.44;100.00
3178;BME280;38141;42.666;23.344;2023-05-19T04:19:58;94917.13;;;12.59;100.00
3178;BME280;38141;42.666;23.344;2023-05-19T04:22:25;94905.47;;;12.73;100.00
3178;BME280;38141;42.666;23.344;2023-05-19T04:24:55;94900.41;;;12.92;100.00
3178;BME280;38141;42.666;23.344;2023-05-19T04:27:22;94929.03;;;13.32;100.00
3178;BME280;38141;42.666;23.344;2023-05-19T04:29:50;94927.16;;;13.15;100.00
3178;BME280;38141;42.666;23.344;2023-05-19T04:32:17;94860.44;;;12.86;100.00
3178;BME280;38141;42.666;23.344;2023-05-19T04:34:44;94924.31;;;13.40;100.00
3178;BME280;38141;42.666;23.344;2023-05-19T04:37:12;94933.16;;;13.65;100.00
3178;BME280;38141;42.666;23.344;2023-05-19T04:39:40;94918.56;;;14.04;100.00
3178;BME280;38141;42.666;23.344;2023-05-19T04:42:09;94935.66;;;15.41;100.00
3178;BME280;38141;42.666;23.344;2023-05-19T04:44:37;94868.66;;;15.40;100.00
3178;BME280;38141;42.666;23.344;2023-05-19T04:47:05;94939.53;;;16.62;100.00
3178;BME280;38141;42.666;23.344;2023-05-19T04:49:33;94932.19;;;17.25;100.00
3178;BME280;38141;42.666;23.344;2023-05-19T04:52:04;94906.25;;;17.72;100.00
3178;BME280;38141;42.666;23.344;2023-05-19T04:54:33;94936.41;;;17.49;100.00
3178;BME280;38141;42.666;23.344;2023-05-19T04:57:00;94933.69;;;17.89;100.00
3178;BME280;38141;42.666;23.344;2023-05-19T04:59:27;94932.78;;;18.47;94.75
3178;BME280;38141;42.666;23.344;2023-05-19T05:01:54;94847.16;;;18.59;86.66
3178;BME280;38141;42.666;23.344;2023-05-19T05:04:22;94946.25;;;19.06;83.07
3178;BME280;38141;42.666;23.344;2023-05-19T05:06:48;94845.44;;;18.49;82.11
3178;BME280;38141;42.666;23.344;2023-05-19T05:09:16;94943.13;;;20.07;75.04
3178;BME280;38141;42.666;23.344;2023-05-19T05:11:45;94937.19;;;20.09;71.67
3178;BME280;38141;42.666;23.344;2023-05-19T05:14:12;94931.63;;;20.37;69.42
3178;BME280;38141;42.666;23.344;2023-05-19T05:16:39;94957.31;;;20.94;67.50
3178;BME280;38141;42.666;23.344;2023-05-19T05:19:07;94936.03;;;20.35;67.79
3178;BME280;38141;42.666;23.344;2023-05-19T05:21:34;94942.50;;;21.39;62.50
3178;BME280;38141;42.666;23.344;2023-05-19T05:24:01;94943.09;;;22.21;59.08
3178;BME280;38141;42.666;23.344;2023-05-19T05:26:29;94920.59;;;22.53;56.48
3178;BME280;38141;42.666;23.344;2023-05-19T05:29:00;94932.13;;;23.37;54.44
3178;BME280;38141;42.666;23.344;2023-05-19T05:31:26;94934.31;;;23.60;53.03
3178;BME280;38141;42.666;23.344;2023-05-19T05:33:53;94926.16;;;24.53;51.10
3178;BME280;38141;42.666;23.344;2023-05-19T05:36:20;94948.31;;;24.53;50.37
3178;BME280;38141;42.666;23.344;2023-05-19T05:38:47;94952.00;;;27.05;46.00
3178;BME280;38141;42.666;23.344;2023-05-19T05:41:14;94933.66;;;25.28;46.85
3178;BME280;38141;42.666;23.344;2023-05-19T05:43:41;94950.53;;;26.45;45.90
3178;BME280;38141;42.666;23.344;2023-05-19T05:46:09;94947.66;;;27.18;44.03
3178;BME280;38141;42.666;23.344;2023-05-19T05:48:36;94952.56;;;27.09;43.77
3178;BME280;38141;42.666;23.344;2023-05-19T05:51:04;94945.50;;;27.28;43.03
3178;BME280;38141;42.666;23.344;2023-05-19T05:53:37;94953.31;;;28.30;42.45
3178;BME280;38141;42.666;23.344;2023-05-19T05:56:06;94955.59;;;28.32;41.44
3178;BME280;38141;42.666;23.344;2023-05-19T05:58:33;94933.28;;;29.21;39.90
3178;BME280;38141;42.666;23.344;2023-05-19T06:01:02;94936.66;;;29.95;38.33
3178;BME280;38141;42.666;23.344;2023-05-19T06:03:31;94961.69;;;30.60;37.23
3178;BME280;38141;42.666;23.344;2023-05-19T06:05:58;94965.25;;;30.77;37.56
3178;BME280;38141;42.666;23.344;2023-05-19T06:08:25;94963.09;;;30.11;37.57
3178;BME280;38141;42.666;23.344;2023-05-19T06:10:53;94972.03;;;30.37;36.82
3178;BME280;38141;42.666;23.344;2023-05-19T06:13:19;94974.31;;;30.44;37.23
3178;BME280;38141;42.666;23.344;2023-05-19T06:15:48;94951.25;;;30.43;37.19
3178;BME280;38141;42.666;23.344;2023-05-19T06:18:15;94947.78;;;29.84;37.55
3178;BME280;38141;42.666;23.344;2023-05-19T06:20:44;94964.72;;;29.27;38.58
3178;BME280;38141;42.666;23.344;2023-05-19T06:23:11;94935.75;;;31.20;35.85
3178;BME280;38141;42.666;23.344;2023-05-19T06:25:38;94910.63;;;30.92;35.41
3178;BME280;38141;42.666;23.344;2023-05-19T06:28:11;94923.00;;;32.05;33.87
3178;BME280;38141;42.666;23.344;2023-05-19T06:30:43;94902.78;;;31.71;34.11
3178;BME280;38141;42.666;23.344;2023-05-19T06:33:12;94946.09;;;32.16;34.63
3178;BME280;38141;42.666;23.344;2023-05-19T06:35:39;94892.81;;;31.87;33.67
3178;BME280;38141;42.666;23.344;2023-05-19T06:38:07;94917.94;;;34.20;30.56
3178;BME280;38141;42.666;23.344;2023-05-19T06:40:34;94960.25;;;33.60;32.04
3178;BME280;38141;42.666;23.344;2023-05-19T06:43:01;94965.09;;;32.76;31.93
3178;BME280;38141;42.666;23.344;2023-05-19T06:45:29;94966.47;;;35.03;30.03
3178;BME280;38141;42.666;23.344;2023-05-19T06:47:55;94965.84;;;35.42;29.11
3178;BME280;38141;42.666;23.344;2023-05-19T06:50:38;94964.84;;;34.25;30.90
3178;BME280;38141;42.666;23.344;2023-05-19T06:53:05;94962.81;;;32.74;32.15
3178;BME280;38141;42.666;23.344;2023-05-19T06:55:33;94945.44;;;33.35;31.33
3178;BME280;38141;42.666;23.344;2023-05-19T06:57:59;94928.88;;;31.96;31.72
3178;BME280;38141;42.666;23.344;2023-05-19T07:00:26;94960.84;;;30.31;34.47
3178;BME280;38141;42.666;23.344;2023-05-19T07:02:53;94949.41;;;31.52;33.06
3178;BME280;38141;42.666;23.344;2023-05-19T07:05:20;94980.34;;;31.87;32.74
3178;BME280;38141;42.666;23.344;2023-05-19T07:07:47;94977.09;;;31.72;33.74
3178;BME280;38141;42.666;23.344;2023-05-19T07:10:14;94932.56;;;28.89;35.84
3178;BME280;38141;42.666;23.344;2023-05-19T07:12:42;94903.72;;;28.60;35.63
3178;BME280;38141;42.666;23.344;2023-05-19T07:15:10;94979.56;;;29.07;37.32
3178;BME280;38141;42.666;23.344;2023-05-19T07:17:37;94970.41;;;27.98;39.48
3178;BME280;38141;42.666;23.344;2023-05-19T07:20:10;94988.88;;;27.40;39.44
3178;BME280;38141;42.666;23.344;2023-05-19T07:22:37;94929.91;;;28.17;37.67
3178;BME280;38141;42.666;23.344;2023-05-19T07:25:04;94959.00;;;28.16;37.41
3178;BME280;38141;42.666;23.344;2023-05-19T07:27:31;94968.03;;;28.37;36.84
3178;BME280;38141;42.666;23.344;2023-05-19T07:30:00;94898.00;;;27.66;37.80
3178;BME280;38141;42.666;23.344;2023-05-19T07:32:29;94907.38;;;27.49;37.93
3178;BME280;38141;42.666;23.344;2023-05-19T07:34:56;94972.19;;;27.40;37.98
3178;BME280;38141;42.666;23.344;2023-05-19T07:37:23;94921.22;;;26.88;38.62
3178;BME280;38141;42.666;23.344;2023-05-19T07:39:50;94953.56;;;27.46;37.85
3178;BME280;38141;42.666;23.344;2023-05-19T07:42:17;94926.28;;;27.24;38.70
3178;BME280;38141;42.666;23.344;2023-05-19T07:44:44;94913.75;;;26.79;39.74
3178;BME280;38141;42.666;23.344;2023-05-19T07:47:12;94943.41;;;27.03;39.33
3178;BME280;38141;42.666;23.344;2023-05-19T07:49:39;94909.72;;;27.35;38.58
3178;BME280;38141;42.666;23.344;2023-05-19T07:52:07;94960.09;;;26.73;40.88
3178;BME280;38141;42.666;23.344;2023-05-19T07:54:34;94882.59;;;26.55;39.86
3178;BME280;38141;42.666;23.344;2023-05-19T07:57:00;94986.88;;;27.06;41.06
3178;BME280;38141;42.666;23.344;2023-05-19T07:59:27;94987.94;;;26.35;41.49
3178;BME280;38141;42.666;23.344;2023-05-19T08:01:54;94977.72;;;26.26;41.67
3178;BME280;38141;42.666;23.344;2023-05-19T08:04:22;94973.88;;;26.24;41.56
3178;BME280;38141;42.666;23.344;2023-05-19T08:06:49;94980.84;;;25.81;42.75
3178;BME280;38141;42.666;23.344;2023-05-19T08:09:17;94995.69;;;25.30;43.36
3178;BME280;38141;42.666;23.344;2023-05-19T08:11:44;94979.06;;;26.45;41.74
3178;BME280;38141;42.666;23.344;2023-05-19T08:14:11;94968.47;;;25.91;42.32
3178;BME280;38141;42.666;23.344;2023-05-19T08:16:44;94970.72;;;25.78;42.25
3178;BME280;38141;42.666;23.344;2023-05-19T08:19:11;94973.84;;;26.09;41.66
3178;BME280;38141;42.666;23.344;2023-05-19T08:21:40;94985.06;;;26.44;41.46
3178;BME280;38141;42.666;23.344;2023-05-19T08:24:07;94986.50;;;26.83;41.18
3178;BME280;38141;42.666;23.344;2023-05-19T08:26:34;94977.88;;;27.66;39.87
3178;BME280;38141;42.666;23.344;2023-05-19T08:29:01;94959.66;;;27.65;40.68
3178;BME280;38141;42.666;23.344;2023-05-19T08:31:28;94968.53;;;26.64;41.23
3178;BME280;38141;42.666;23.344;2023-05-19T08:33:55;94969.16;;;26.15;42.26
3178;BME280;38141;42.666;23.344;2023-05-19T08:36:22;94954.34;;;25.41;43.79
3178;BME280;38141;42.666;23.344;2023-05-19T08:38:50;94956.28;;;25.26;43.78
3178;BME280;38141;42.666;23.344;2023-05-19T08:41:17;94962.66;;;25.65;44.42
3178;BME280;38141;42.666;23.344;2023-05-19T08:43:44;94967.81;;;26.10;43.77
3178;BME280;38141;42.666;23.344;2023-05-19T08:46:12;94969.59;;;27.51;40.53
3178;BME280;38141;42.666;23.344;2023-05-19T08:48:41;94954.22;;;28.22;39.51
3178;BME280;38141;42.666;23.344;2023-05-19T08:51:13;94920.84;;;28.22;40.90
3178;BME280;38141;42.666;23.344;2023-05-19T08:53:47;94939.75;;;27.92;38.97
3178;BME280;38141;42.666;23.344;2023-05-19T08:56:21;94943.44;;;26.73;41.98
3178;BME280;38141;42.666;23.344;2023-05-19T08:58:49;94950.50;;;27.44;40.95
3178;BME280;38141;42.666;23.344;2023-05-19T09:01:18;94937.88;;;26.59;41.56
3178;BME280;38141;42.666;23.344;2023-05-19T09:03:46;94963.78;;;28.41;39.32
3178;BME280;38141;42.666;23.344;2023-05-19T09:06:14;94949.22;;;29.68;37.90
3178;BME280;38141;42.666;23.344;2023-05-19T09:08:42;94955.22;;;30.09;36.78
3178;BME280;38141;42.666;23.344;2023-05-19T09:11:10;94966.09;;;29.05;38.66
3178;BME280;38141;42.666;23.344;2023-05-19T09:13:38;94955.44;;;28.41;38.75
3178;BME280;38141;42.666;23.344;2023-05-19T09:16:06;94949.16;;;29.09;38.26
3178;BME280;38141;42.666;23.344;2023-05-19T09:18:33;94947.13;;;30.17;36.58
3178;BME280;38141;42.666;23.344;2023-05-19T09:21:00;94945.66;;;30.38;36.68
3178;BME280;38141;42.666;23.344;2023-05-19T09:23:29;94943.59;;;29.51;37.57
3178;BME280;38141;42.666;23.344;2023-05-19T09:26:00;94929.69;;;31.11;35.67
3178;BME280;38141;42.666;23.344;2023-05-19T09:28:30;94946.41;;;31.27;35.03
3178;BME280;38141;42.666;23.344;2023-05-19T09:31:02;94928.06;;;31.43;34.75
3178;BME280;38141;42.666;23.344;2023-05-19T09:33:32;94941.13;;;33.83;32.39
3178;BME280;38141;42.666;23.344;2023-05-19T09:36:00;94934.16;;;34.27;31.00
3178;BME280;38141;42.666;23.344;2023-05-19T09:38:27;94930.50;;;33.51;32.45
3178;BME280;38141;42.666;23.344;2023-05-19T09:40:55;94944.06;;;34.65;30.82
3178;BME280;38141;42.666;23.344;2023-05-19T09:43:22;94934.41;;;34.79;29.35
3178;BME280;38141;42.666;23.344;2023-05-19T09:45:54;94940.28;;;35.53;29.69
3178;BME280;38141;42.666;23.344;2023-05-19T09:48:25;94942.66;;;36.48;27.14
3178;BME280;38141;42.666;23.344;2023-05-19T09:50:52;94944.03;;;37.30;26.72
3178;BME280;38141;42.666;23.344;2023-05-19T09:53:20;94940.69;;;38.32;25.69
3178;BME280;38141;42.666;23.344;2023-05-19T09:55:48;94918.88;;;37.61;26.25
3178;BME280;38141;42.666;23.344;2023-05-19T09:58:15;94902.25;;;34.43;29.32
3178;BME280;38141;42.666;23.344;2023-05-19T10:00:43;94930.81;;;34.28;29.16
3178;BME280;38141;42.666;23.344;2023-05-19T10:03:10;94850.16;;;31.69;31.82
3178;BME280;38141;42.666;23.344;2023-05-19T10:05:38;94918.91;;;32.52;31.68
3178;BME280;38141;42.666;23.344;2023-05-19T10:08:06;94905.78;;;31.10;32.82
3178;BME280;38141;42.666;23.344;2023-05-19T10:10:35;94878.16;;;30.56;33.84
3178;BME280;38141;42.666;23.344;2023-05-19T10:13:02;94921.75;;;31.26;33.24
3178;BME280;38141;42.666;23.344;2023-05-19T10:15:29;94828.16;;;28.42;35.29
3178;BME280;38141;42.666;23.344;2023-05-19T10:17:57;94910.63;;;30.54;34.56
3178;BME280;38141;42.666;23.344;2023-05-19T10:20:25;94843.94;;;29.46;35.25
3178;BME280;38141;42.666;23.344;2023-05-19T10:22:54;94920.34;;;29.23;35.55
3178;BME280;38141;42.666;23.344;2023-05-19T10:25:20;94912.19;;;28.14;36.32
3178;BME280;38141;42.666;23.344;2023-05-19T10:27:53;94895.50;;;28.46;36.39
3178;BME280;38141;42.666;23.344;2023-05-19T10:30:26;94861.13;;;27.71;36.71
3178;BME280;38141;42.666;23.344;2023-05-19T10:32:55;94911.03;;;26.99;38.54
3178;BME280;38141;42.666;23.344;2023-05-19T10:35:39;94875.59;;;26.60;38.87
3178;BME280;38141;42.666;23.344;2023-05-19T10:38:17;94878.47;;;27.40;38.65
3178;BME280;38141;42.666;23.344;2023-05-19T10:40:55;94857.00;;;28.44;37.00
3178;BME280;38141;42.666;23.344;2023-05-19T10:43:33;94835.25;;;27.85;37.96
3178;BME280;38141;42.666;23.344;2023-05-19T10:46:03;94862.72;;;27.78;38.00
3178;BME280;38141;42.666;23.344;2023-05-19T10:48:32;94889.31;;;27.18;39.23
3178;BME280;38141;42.666;23.344;2023-05-19T10:51:00;94886.78;;;26.65;38.34
3178;BME280;38141;42.666;23.344;2023-05-19T10:53:31;94879.66;;;27.14;38.57
3178;BME280;38141;42.666;23.344;2023-05-19T10:56:00;94879.94;;;27.16;38.25
3178;BME280;38141;42.666;23.344;2023-05-19T10:58:38;94881.66;;;27.33;37.00
3178;BME280;38141;42.666;23.344;2023-05-19T11:01:12;94874.59;;;28.04;36.20
3178;BME280;38141;42.666;23.344;2023-05-19T11:03:44;94876.06;;;28.20;36.85
3178;BME280;38141;42.666;23.344;2023-05-19T11:06:18;94878.63;;;27.11;38.59
3178;BME280;38141;42.666;23.344;2023-05-19T11:08:51;94865.66;;;25.94;39.91
3178;BME280;38141;42.666;23.344;2023-05-19T11:11:18;94848.19;;;25.74;39.79
3178;BME280;38141;42.666;23.344;2023-05-19T11:13:46;94877.56;;;26.74;38.26
3178;BME280;38141;42.666;23.344;2023-05-19T11:16:13;94870.84;;;27.56;36.66
3178;BME280;38141;42.666;23.344;2023-05-19T11:18:40;94869.13;;;27.84;36.03
3178;BME280;38141;42.666;23.344;2023-05-19T11:21:07;94869.97;;;28.16;36.12
3178;BME280;38141;42.666;23.344;2023-05-19T11:23:36;94843.03;;;26.95;38.64
3178;BME280;38141;42.666;23.344;2023-05-19T11:26:06;94841.06;;;26.17;39.13
3178;BME280;38141;42.666;23.344;2023-05-19T11:28:35;94870.84;;;26.01;39.70
3178;BME280;38141;42.666;23.344;2023-05-19T11:31:04;94878.50;;;25.92;40.81
3178;BME280;38141;42.666;23.344;2023-05-19T11:33:33;94872.66;;;26.04;39.92
3178;BME280;38141;42.666;23.344;2023-05-19T11:36:01;94814.75;;;24.76;40.97
3178;BME280;38141;42.666;23.344;2023-05-19T11:38:28;94847.97;;;24.53;43.35
3178;BME280;38141;42.666;23.344;2023-05-19T11:40:55;94836.28;;;24.16;43.36
3178;BME280;38141;42.666;23.344;2023-05-19T11:43:24;94882.75;;;24.35;44.51
3178;BME280;38141;42.666;23.344;2023-05-19T11:45:52;94888.31;;;23.57;46.84
3178;BME280;38141;42.666;23.344;2023-05-19T11:48:20;94919.94;;;22.80;52.67
3178;BME280;38141;42.666;23.344;2023-05-19T11:50:47;94919.16;;;21.43;56.21
3178;BME280;38141;42.666;23.344;2023-05-19T11:53:14;94906.84;;;22.00;60.50
3178;BME280;38141;42.666;23.344;2023-05-19T11:55:42;94914.97;;;22.26;58.10
3178;BME280;38141;42.666;23.344;2023-05-19T11:58:09;94908.19;;;21.96;67.42
3178;BME280;38141;42.666;23.344;2023-05-19T12:00:40;94904.47;;;21.68;70.04
3178;BME280;38141;42.666;23.344;2023-05-19T12:03:07;94947.09;;;21.07;65.92
3178;BME280;38141;42.666;23.344;2023-05-19T12:05:36;94951.06;;;19.47;80.72
3178;BME280;38141;42.666;23.344;2023-05-19T12:08:19;94955.00;;;19.01;86.86
3178;BME280;38141;42.666;23.344;2023-05-19T12:10:47;94922.81;;;17.85;100.00
3178;BME280;38141;42.666;23.344;2023-05-19T12:13:15;94960.22;;;17.92;100.00
3178;BME280;38141;42.666;23.344;2023-05-19T12:15:43;94988.72;;;17.74;100.00
3178;BME280;38141;42.666;23.344;2023-05-19T12:18:10;94844.25;;;16.64;100.00
3178;BME280;38141;42.666;23.344;2023-05-19T12:20:37;94884.00;;;17.51;100.00
3178;BME280;38141;42.666;23.344;2023-05-19T12:23:04;94876.63;;;16.88;100.00
3178;BME280;38141;42.666;23.344;2023-05-19T12:25:32;94962.81;;;17.79;100.00
3178;BME280;38141;42.666;23.344;2023-05-19T12:27:59;94963.88;;;17.85;100.00
3178;BME280;38141;42.666;23.344;2023-05-19T12:30:27;94960.16;;;17.75;98.79
3178;BME280;38141;42.666;23.344;2023-05-19T12:32:56;94950.03;;;17.72;93.64
3178;BME280;38141;42.666;23.344;2023-05-19T12:35:25;94961.53;;;18.03;93.56
3178;BME280;38141;42.666;23.344;2023-05-19T12:37:53;94924.72;;;17.88;96.45
3178;BME280;38141;42.666;23.344;2023-05-19T12:40:20;94958.84;;;18.19;93.66
3178;BME280;38141;42.666;23.344;2023-05-19T12:42:48;94909.63;;;18.32;94.31
3178;BME280;38141;42.666;23.344;2023-05-19T12:45:19;94920.56;;;18.84;87.52
3178;BME280;38141;42.666;23.344;2023-05-19T12:47:48;94894.31;;;18.99;84.85
3178;BME280;38141;42.666;23.344;2023-05-19T12:50:17;94909.06;;;19.34;78.27
3178;BME280;38141;42.666;23.344;2023-05-19T12:52:46;94844.66;;;18.81;77.32
3178;BME280;38141;42.666;23.344;2023-05-19T12:55:15;94797.13;;;18.72;67.18
3178;BME280;38141;42.666;23.344;2023-05-19T12:57:44;94883.13;;;19.51;72.01
3178;BME280;38141;42.666;23.344;2023-05-19T13:00:15;94871.56;;;19.15;76.45
3178;BME280;38141;42.666;23.344;2023-05-19T13:02:56;94853.06;;;19.48;75.49
3178;BME280;38141;42.666;23.344;2023-05-19T13:05:24;94895.13;;;19.58;73.01